Overseas Skopelos — V7SU9 — position and weather

sailwx.info

Track history (hours):
 
Tides and Currents Weather Stations Pressure Air Temp Water Temp Dewpoint Dewpoint Depression Visibility Wind Speed Wind Dir Waves Ship Positions

Overseas Skopelos

Last reported at 2016-Jul-23 20:32 UTC. Time now 2016-Jul-23 21:11 UTC.
Position N 35°57' W 008°40'.

Length 183 m; draft 8.1 m.

Type: Tanker. MMSI: 538003726.

Date/timePositionNaut miles runAvg speedWind from/ knotsBaromVisibWave heightAir tempDewpointWater temp
2016-Jul-23 20:32N 35°57' W 008°40'4112.9
2016-Jul-23 17:22N 35°57' W 007°49'1012.8
2016-Jul-23 16:33N 35°57' W 007°36'9613.2
2016-Jul-23 09:14N 35°58' W 005°37'711.0
2016-Jul-23 08:34N 35°60' W 005°28'1211.8
2016-Jul-23 07:33N 36°02' W 005°14'19713.1
2016-Jul-22 16:31N 36°35' W 001°13'2512.6
2016-Jul-22 14:31N 36°39' W 000°42'6712.7
2016-Jul-22 09:13N 36°52' E 000°41'913.2
2016-Jul-22 08:33N 36°54' E 000°52'1313.1
2016-Jul-22 07:33N 36°56' E 001°08'2713.4
2016-Jul-22 05:33N 37°01' E 001°40'1412.8
2016-Jul-22 04:29N 37°04' E 001°57'1212.9
2016-Jul-22 03:33N 37°06' E 002°12'1312.5
2016-Jul-22 02:32N 37°08' E 002°28'1312.8
2016-Jul-22 01:33N 37°10' E 002°43'1313.1
2016-Jul-22 00:33N 37°13' E 002°59'1313.0
2016-Jul-21 23:33N 37°16' E 003°15'1312.9
2016-Jul-21 22:33N 37°18' E 003°31'1312.9
2016-Jul-21 21:33N 37°20' E 003°47'1313.1
2016-Jul-21 20:33N 37°23' E 004°03'1313.5
2016-Jul-21 19:33N 37°25' E 004°20'1413.6
2016-Jul-21 18:33N 37°28' E 004°37'1313.3
2016-Jul-21 17:33N 37°30' E 004°53'1313.2
2016-Jul-21 16:32N 37°32' E 005°10'1313.4
2016-Jul-21 15:32N 37°32' E 005°27'1313.4
2016-Jul-21 14:32N 37°32' E 005°44'13613.4
2016-Jul-21 04:25N 37°38' E 008°35'2413.1
2016-Jul-21 02:33N 37°40' E 009°06'1412.2
2016-Jul-21 01:24N 37°40' E 009°24'1112.2
2016-Jul-21 00:31N 37°40' E 009°37'1212.6
2016-Jul-20 23:33N 37°39' E 009°53'1312.6
2016-Jul-20 22:33N 37°39' E 010°09'1312.8
2016-Jul-20 21:31N 37°37' E 010°25'1313.1
2016-Jul-20 20:33N 37°34' E 010°40'1313.2
2016-Jul-20 19:33N 37°30' E 010°57'1713.1
2016-Jul-20 18:17N 37°24' E 011°16'1713.8
2016-Jul-20 17:05N 37°16' E 011°34'714.0
2016-Jul-20 16:33N 37°11' E 011°41'1414.1
2016-Jul-20 15:34N 37°04' E 011°56'1413.6
2016-Jul-20 14:33N 36°56' E 012°10'1312.5
2016-Jul-20 13:33N 36°48' E 012°22'1212.5
2016-Jul-20 12:33N 36°38' E 012°32'1312.6
2016-Jul-20 11:33N 36°29' E 012°42'3812.7
2016-Jul-20 08:31N 35°58' E 013°11'1111.8
2016-Jul-20 07:33N 35°47' E 013°16'1413.4
2016-Jul-20 06:33N 35°34' E 013°16'17210.8
2016-Jul-19 14:33N 34°15' E 010°10'  
Track history (hours):
 
Tides and Currents Weather Stations Pressure Air Temp Water Temp Dewpoint Dewpoint Depression Visibility Wind Speed Wind Dir Waves Ship Positions

Overseas Skopelos

Last reported at 2016-Jul-23 20:32 UTC. Time now 2016-Jul-23 21:11 UTC.
Position N 35°57' W 008°40'.

Length 183 m; draft 8.1 m.

Type: Tanker. MMSI: 538003726.

Date/timePositionNaut miles runAvg speedWind from/ knotsBaromVisibWave heightAir tempDewpointWater temp
2016-Jul-23 20:32N 35°57' W 008°40'4112.9
2016-Jul-23 17:22N 35°57' W 007°49'1012.8
2016-Jul-23 16:33N 35°57' W 007°36'9613.2
2016-Jul-23 09:14N 35°58' W 005°37'711.0
2016-Jul-23 08:34N 35°60' W 005°28'1211.8
2016-Jul-23 07:33N 36°02' W 005°14'19713.1
2016-Jul-22 16:31N 36°35' W 001°13'2512.6
2016-Jul-22 14:31N 36°39' W 000°42'6712.7
2016-Jul-22 09:13N 36°52' E 000°41'913.2
2016-Jul-22 08:33N 36°54' E 000°52'1313.1
2016-Jul-22 07:33N 36°56' E 001°08'2713.4
2016-Jul-22 05:33N 37°01' E 001°40'1412.8
2016-Jul-22 04:29N 37°04' E 001°57'1212.9
2016-Jul-22 03:33N 37°06' E 002°12'1312.5
2016-Jul-22 02:32N 37°08' E 002°28'1312.8
2016-Jul-22 01:33N 37°10' E 002°43'1313.1
2016-Jul-22 00:33N 37°13' E 002°59'1313.0
2016-Jul-21 23:33N 37°16' E 003°15'1312.9
2016-Jul-21 22:33N 37°18' E 003°31'1312.9
2016-Jul-21 21:33N 37°20' E 003°47'1313.1
2016-Jul-21 20:33N 37°23' E 004°03'1313.5
2016-Jul-21 19:33N 37°25' E 004°20'1413.6
2016-Jul-21 18:33N 37°28' E 004°37'1313.3
2016-Jul-21 17:33N 37°30' E 004°53'1313.2
2016-Jul-21 16:32N 37°32' E 005°10'1313.4
2016-Jul-21 15:32N 37°32' E 005°27'1313.4
2016-Jul-21 14:32N 37°32' E 005°44'13613.4
2016-Jul-21 04:25N 37°38' E 008°35'2413.1
2016-Jul-21 02:33N 37°40' E 009°06'1412.2
2016-Jul-21 01:24N 37°40' E 009°24'1112.2
2016-Jul-21 00:31N 37°40' E 009°37'1212.6
2016-Jul-20 23:33N 37°39' E 009°53'1312.6
2016-Jul-20 22:33N 37°39' E 010°09'1312.8
2016-Jul-20 21:31N 37°37' E 010°25'1313.1
2016-Jul-20 20:33N 37°34' E 010°40'1313.2
2016-Jul-20 19:33N 37°30' E 010°57'1713.1
2016-Jul-20 18:17N 37°24' E 011°16'1713.8
2016-Jul-20 17:05N 37°16' E 011°34'714.0
2016-Jul-20 16:33N 37°11' E 011°41'1414.1
2016-Jul-20 15:34N 37°04' E 011°56'1413.6
2016-Jul-20 14:33N 36°56' E 012°10'1312.5
2016-Jul-20 13:33N 36°48' E 012°22'1212.5
2016-Jul-20 12:33N 36°38' E 012°32'1312.6
2016-Jul-20 11:33N 36°29' E 012°42'3812.7
2016-Jul-20 08:31N 35°58' E 013°11'1111.8
2016-Jul-20 07:33N 35°47' E 013°16'1413.4
2016-Jul-20 06:33N 35°34' E 013°16'17210.8
2016-Jul-19 14:33N 34°15' E 010°10'  

Dump ship's entire track history